Tracey Kosan — 2EYB2 — position and weather

sailwx.info

Track history (hours):
 
Tides and Currents Weather Stations Pressure Air Temp Water Temp Dewpoint Dewpoint Depression Visibility Wind Speed Wind Dir Waves Ship Positions

Tracey Kosan

Last reported at 2018-May-11 04:22 UTC. Time now 2018-May-24 14:08 UTC.
Position N 10°53' W 061°33'.
Warning: this ship's position is 13 days out of date.

Length 100 m; draft 5.5 m.

Type: Ship (hazmat cat D). MMSI: 235089094.

Date/timePositionNaut miles runAvg speedWind from/ knotsBaromVisibWave heightAir tempDewpointWater temp
2018-May-11 04:22N 10°53' W 061°33'411.8
2018-May-11 04:00N 10°53' W 061°37'612.2
2018-May-11 03:29N 10°52' W 061°44'611.3
2018-May-11 02:55N 10°47' W 061°47'513.1
2018-May-11 02:30N 10°42' W 061°48'611.8
2018-May-11 02:00N 10°36' W 061°46'612.4
2018-May-11 01:30N 10°32' W 061°41'612.5
2018-May-11 01:00N 10°27' W 061°37'612.4
2018-May-11 00:30N 10°23' W 061°32'3 2.8
2018-May-10 23:26N 10°23' W 061°29'0 0.0
2018-May-09 21:23N 10°23' W 061°29'2 4.7
2018-May-09 20:59N 10°23' W 061°31'1 1.3
2018-May-09 20:29N 10°22' W 061°31'0 0.0
2018-May-09 19:53N 10°22' W 061°31'0 0.1
2018-May-09 19:29N 10°22' W 061°31'0 0.0
2018-May-09 18:47N 10°22' W 061°31'0 0.0
2018-May-09 16:59N 10°22' W 061°31'0 0.0
2018-May-09 15:53N 10°22' W 061°31'0 0.0
2018-May-09 15:23N 10°22' W 061°31'0 0.0
2018-May-09 14:41N 10°22' W 061°31'0 0.1
2018-May-09 14:29N 10°22' W 061°31'0 0.0
2018-May-09 13:11N 10°22' W 061°31'0 0.1
2018-May-09 12:59N 10°22' W 061°31'0 0.0
2018-May-09 12:20N 10°22' W 061°31'0 0.1
2018-May-09 11:53N 10°22' W 061°31'0 0.0
2018-May-09 10:47N 10°22' W 061°31'0 0.1
2018-May-09 10:23N 10°22' W 061°31'0 0.1
2018-May-09 09:53N 10°22' W 061°31'0 0.1
2018-May-09 09:23N 10°22' W 061°31'0 0.0
2018-May-09 08:53N 10°22' W 061°31'0 0.0
2018-May-09 08:29N 10°22' W 061°31'0 0.0
2018-May-09 07:59N 10°22' W 061°31'0 0.0
2018-May-09 07:29N 10°22' W 061°31'0 0.0
2018-May-09 06:53N 10°22' W 061°31'0 0.0
2018-May-09 06:23N 10°22' W 061°31'0 0.1
2018-May-09 05:53N 10°22' W 061°31'0 0.1
2018-May-09 05:29N 10°22' W 061°31'0 0.0
2018-May-09 04:59N 10°22' W 061°31'1 2.6
2018-May-09 04:30N 10°22' W 061°32'3 5.8
2018-May-09 04:00N 10°24' W 061°35'612.7
2018-May-09 03:30N 10°29' W 061°39'713.1
2018-May-09 03:01N 10°34' W 061°43'713.1
2018-May-09 02:30N 10°38' W 061°48'611.7
2018-May-09 02:00N 10°44' W 061°48'611.2
2018-May-09 01:29N 10°50' W 061°47'5 9.8
2018-May-09 00:58N 10°52' W 061°42'612.2
2018-May-09 00:28N 10°52' W 061°36'  
2018-May-01 23:07N 16°12' W 061°31'3 7.8
2018-May-01 22:47N 16°14' W 061°33'0 0.0
2018-May-01 13:22N 16°14' W 061°33'1 3.0
2018-May-01 13:00N 16°13' W 061°32'4 8.0
2018-May-01 12:30N 16°10' W 061°29'2 2.0
2018-May-01 11:37N 16°09' W 061°28'0 1.9
2018-May-01 11:27N 16°09' W 061°28'  
Track history (hours):
 
Tides and Currents Weather Stations Pressure Air Temp Water Temp Dewpoint Dewpoint Depression Visibility Wind Speed Wind Dir Waves Ship Positions

Tracey Kosan

Last reported at 2018-May-11 04:22 UTC. Time now 2018-May-24 14:08 UTC.
Position N 10°53' W 061°33'.
Warning: this ship's position is 13 days out of date.

Length 100 m; draft 5.5 m.

Type: Ship (hazmat cat D). MMSI: 235089094.

Date/timePositionNaut miles runAvg speedWind from/ knotsBaromVisibWave heightAir tempDewpointWater temp
2018-May-11 04:22N 10°53' W 061°33'411.8
2018-May-11 04:00N 10°53' W 061°37'612.2
2018-May-11 03:29N 10°52' W 061°44'611.3
2018-May-11 02:55N 10°47' W 061°47'513.1
2018-May-11 02:30N 10°42' W 061°48'611.8
2018-May-11 02:00N 10°36' W 061°46'612.4
2018-May-11 01:30N 10°32' W 061°41'612.5
2018-May-11 01:00N 10°27' W 061°37'612.4
2018-May-11 00:30N 10°23' W 061°32'3 2.8
2018-May-10 23:26N 10°23' W 061°29'0 0.0
2018-May-09 21:23N 10°23' W 061°29'2 4.7
2018-May-09 20:59N 10°23' W 061°31'1 1.3
2018-May-09 20:29N 10°22' W 061°31'0 0.0
2018-May-09 19:53N 10°22' W 061°31'0 0.1
2018-May-09 19:29N 10°22' W 061°31'0 0.0
2018-May-09 18:47N 10°22' W 061°31'0 0.0
2018-May-09 16:59N 10°22' W 061°31'0 0.0
2018-May-09 15:53N 10°22' W 061°31'0 0.0
2018-May-09 15:23N 10°22' W 061°31'0 0.0
2018-May-09 14:41N 10°22' W 061°31'0 0.1
2018-May-09 14:29N 10°22' W 061°31'0 0.0
2018-May-09 13:11N 10°22' W 061°31'0 0.1
2018-May-09 12:59N 10°22' W 061°31'0 0.0
2018-May-09 12:20N 10°22' W 061°31'0 0.1
2018-May-09 11:53N 10°22' W 061°31'0 0.0
2018-May-09 10:47N 10°22' W 061°31'0 0.1
2018-May-09 10:23N 10°22' W 061°31'0 0.1
2018-May-09 09:53N 10°22' W 061°31'0 0.1
2018-May-09 09:23N 10°22' W 061°31'0 0.0
2018-May-09 08:53N 10°22' W 061°31'0 0.0
2018-May-09 08:29N 10°22' W 061°31'0 0.0
2018-May-09 07:59N 10°22' W 061°31'0 0.0
2018-May-09 07:29N 10°22' W 061°31'0 0.0
2018-May-09 06:53N 10°22' W 061°31'0 0.0
2018-May-09 06:23N 10°22' W 061°31'0 0.1
2018-May-09 05:53N 10°22' W 061°31'0 0.1
2018-May-09 05:29N 10°22' W 061°31'0 0.0
2018-May-09 04:59N 10°22' W 061°31'1 2.6
2018-May-09 04:30N 10°22' W 061°32'3 5.8
2018-May-09 04:00N 10°24' W 061°35'612.7
2018-May-09 03:30N 10°29' W 061°39'713.1
2018-May-09 03:01N 10°34' W 061°43'713.1
2018-May-09 02:30N 10°38' W 061°48'611.7
2018-May-09 02:00N 10°44' W 061°48'611.2
2018-May-09 01:29N 10°50' W 061°47'5 9.8
2018-May-09 00:58N 10°52' W 061°42'612.2
2018-May-09 00:28N 10°52' W 061°36'  
2018-May-01 23:07N 16°12' W 061°31'3 7.8
2018-May-01 22:47N 16°14' W 061°33'0 0.0
2018-May-01 13:22N 16°14' W 061°33'1 3.0
2018-May-01 13:00N 16°13' W 061°32'4 8.0
2018-May-01 12:30N 16°10' W 061°29'2 2.0
2018-May-01 11:37N 16°09' W 061°28'0 1.9
2018-May-01 11:27N 16°09' W 061°28'  

Dump ship's entire track history